createdAt,value
2023-03-23T04:14:16.786Z,862.00
2023-03-23T04:18:16.681Z,865.00
2023-03-23T04:22:16.674Z,853.00
2023-03-23T04:26:16.664Z,854.00
2023-03-23T04:30:16.623Z,856.00
2023-03-23T04:34:16.585Z,857.00
2023-03-23T04:38:16.554Z,850.00
2023-03-23T04:42:16.509Z,853.00
2023-03-23T04:46:16.480Z,854.00
2023-03-23T04:50:16.435Z,848.00
2023-03-23T04:54:16.373Z,850.00
2023-03-23T04:58:16.343Z,851.00
2023-03-23T05:02:16.306Z,849.00
2023-03-23T05:06:16.191Z,841.00
2023-03-23T05:10:16.109Z,837.00
2023-03-23T05:14:17.010Z,838.00
2023-03-23T05:18:15.887Z,838.00
2023-03-23T05:22:15.785Z,834.00
2023-03-23T05:26:15.673Z,834.00
2023-03-23T05:30:15.569Z,840.00
2023-03-23T05:34:15.476Z,837.00
2023-03-23T05:38:15.407Z,834.00
2023-03-23T05:42:15.362Z,837.00
2023-03-23T05:46:15.267Z,832.00
2023-03-23T05:50:15.209Z,832.00
2023-03-23T05:54:15.139Z,827.00
2023-03-23T05:58:15.072Z,822.00
2023-03-23T06:02:15.032Z,824.00
2023-03-23T06:06:14.985Z,818.00
2023-03-23T06:10:14.911Z,857.00
2023-03-23T06:14:14.858Z,838.00
2023-03-23T06:18:14.845Z,825.00
2023-03-23T06:22:14.799Z,824.00
2023-03-23T06:26:14.794Z,887.00
2023-03-23T06:30:14.883Z,954.00
2023-03-23T06:34:15.062Z,1081.00
2023-03-23T06:38:15.241Z,1221.00
2023-03-23T06:42:15.427Z,1384.00
2023-03-23T06:46:15.489Z,1455.00
2023-03-23T06:50:15.543Z,1513.00
2023-03-23T06:54:15.591Z,1547.00
2023-03-23T06:58:15.611Z,1805.00
2023-03-23T07:02:15.702Z,2058.00
2023-03-23T07:06:15.553Z,2093.00
2023-03-23T07:10:15.453Z,2053.00
2023-03-23T07:14:15.317Z,2284.00
2023-03-23T07:18:15.174Z,2512.00
2023-03-23T07:22:15.028Z,2460.00
2023-03-23T07:26:14.861Z,2560.00
2023-03-23T07:30:14.813Z,1734.00
2023-03-23T07:34:14.690Z,1534.00
2023-03-23T07:38:14.786Z,1385.00
2023-03-23T07:42:14.469Z,1201.00
2023-03-23T07:46:14.329Z,1174.00
2023-03-23T07:50:14.194Z,1207.00
2023-03-23T07:54:14.043Z,1271.00
2023-03-23T07:58:13.951Z,1333.00
2023-03-23T08:02:13.719Z,1365.00
2023-03-23T08:06:13.565Z,1299.00
2023-03-23T08:10:13.360Z,1336.00
2023-03-23T08:14:13.906Z,1353.00
2023-03-23T08:18:13.003Z,1291.00
2023-03-23T08:22:12.836Z,1285.00
2023-03-23T08:26:12.660Z,1393.00
2023-03-23T08:30:12.479Z,1444.00
2023-03-23T08:34:13.862Z,1459.00
2023-03-23T08:38:12.125Z,1519.00
2023-03-23T08:42:11.960Z,1608.00
2023-03-23T08:46:11.771Z,1614.00
2023-03-23T08:50:11.648Z,1683.00
2023-03-23T08:54:11.435Z,1765.00
2023-03-23T08:58:11.249Z,1779.00
2023-03-23T09:02:11.070Z,1815.00
2023-03-23T09:06:11.496Z,1829.00
2023-03-23T09:10:11.103Z,1820.00
2023-03-23T09:14:11.230Z,1709.00
2023-03-23T09:18:11.204Z,1368.00
2023-03-23T09:22:11.117Z,1425.00
2023-03-23T09:26:11.124Z,1442.00
2023-03-23T09:30:11.147Z,958.00
2023-03-23T09:34:11.164Z,841.00
2023-03-23T09:38:11.282Z,899.00
2023-03-23T09:42:11.333Z,1004.00
2023-03-23T09:46:11.596Z,1093.00
2023-03-23T09:50:11.155Z,1196.00
2023-03-23T09:54:11.114Z,1311.00
2023-03-23T09:58:11.110Z,1410.00
2023-03-23T10:02:11.132Z,1635.00
2023-03-23T10:06:11.062Z,1586.00
2023-03-23T10:10:11.202Z,1682.00
2023-03-23T10:14:11.222Z,1721.00
2023-03-23T10:18:11.292Z,1828.00
2023-03-23T10:22:11.331Z,1846.00
2023-03-23T10:26:11.397Z,2002.00
2023-03-23T10:30:11.470Z,2033.00
2023-03-23T10:34:11.471Z,1933.00
2023-03-23T10:38:11.535Z,2097.00
2023-03-23T10:42:11.628Z,2151.00
2023-03-23T10:46:15.526Z,2302.00
2023-03-23T10:50:12.518Z,2486.00
2023-03-23T10:54:11.361Z,2630.00
2023-03-23T10:58:11.633Z,2774.00
2023-03-23T11:02:15.643Z,2878.00
2023-03-23T11:06:12.132Z,2967.00
2023-03-23T11:10:11.139Z,2861.00
2023-03-23T11:14:10.569Z,2939.00
2023-03-23T11:18:10.558Z,2947.00
2023-03-23T11:22:10.606Z,2951.00
2023-03-23T11:26:10.404Z,2948.00
2023-03-23T11:30:10.219Z,2942.00
2023-03-23T11:34:10.034Z,2936.00
2023-03-23T11:38:09.851Z,2925.00
2023-03-23T11:42:09.814Z,2906.00
2023-03-23T11:46:09.434Z,2902.00
2023-03-23T11:50:09.227Z,2891.00
2023-03-23T13:02:05.982Z,2658.00
2023-03-23T13:30:05.924Z,2213.00
2023-03-23T13:34:05.956Z,2204.00
2023-03-23T13:38:05.976Z,2199.00
2023-03-23T13:42:06.618Z,2205.00
2023-03-23T13:46:06.089Z,2194.00
2023-03-23T13:50:06.057Z,2194.00
2023-03-23T13:54:06.101Z,2187.00
2023-03-23T14:14:06.339Z,2146.00
2023-03-23T14:18:06.384Z,2144.00
2023-03-23T14:22:06.438Z,2151.00
2023-03-23T14:26:06.713Z,2134.00
2023-03-23T14:30:06.551Z,2127.00
2023-03-23T14:34:06.713Z,2127.00
2023-03-23T14:38:06.663Z,2117.00
2023-03-23T14:42:06.722Z,2097.00
2023-03-23T14:46:06.786Z,2093.00
2023-03-23T14:50:06.897Z,2082.00
2023-03-23T14:54:06.915Z,2076.00
2023-03-23T15:06:07.124Z,2065.00
2023-03-23T15:10:07.195Z,2046.00
2023-03-23T15:14:07.373Z,2040.00
2023-03-23T15:18:07.373Z,2042.00
2023-03-23T15:26:07.554Z,2033.00
2023-03-23T15:34:07.738Z,2021.00
2023-03-23T15:58:08.286Z,1967.00
2023-03-23T16:34:09.358Z,1899.00
2023-03-23T16:38:09.487Z,1906.00
2023-03-23T16:54:09.512Z,1897.00
2023-03-23T16:58:17.152Z,1892.00
2023-03-23T17:26:08.798Z,1841.00
2023-03-23T17:30:08.637Z,1844.00
2023-03-23T17:34:08.550Z,1844.00
2023-03-23T17:38:08.469Z,1831.00
2023-03-23T17:42:08.466Z,1832.00
2023-03-23T17:58:08.143Z,1810.00
2023-03-23T18:06:08.226Z,1801.00
2023-03-23T18:22:08.835Z,1775.00
2023-03-23T18:38:08.234Z,1747.00
2023-03-23T19:14:07.512Z,1693.00
2023-03-23T19:22:08.590Z,1694.00
2023-03-23T19:38:08.095Z,1677.00
2023-03-23T19:42:08.018Z,1653.00
2023-03-23T19:50:07.957Z,1667.00
2023-03-23T19:54:07.864Z,1672.00
2023-03-23T20:18:07.551Z,1638.00
2023-03-23T20:22:07.522Z,1632.00
2023-03-23T20:26:07.510Z,1624.00
2023-03-23T20:30:07.421Z,1621.00
2023-03-23T20:46:07.171Z,1599.00
2023-03-23T20:54:07.161Z,1589.00
2023-03-23T20:58:07.082Z,1580.00
2023-03-23T21:02:07.098Z,1581.00
2023-03-23T21:06:06.946Z,1582.00
2023-03-23T21:10:06.850Z,1577.00
2023-03-23T21:14:06.795Z,1572.00
2023-03-23T21:18:06.795Z,1566.00
2023-03-23T21:22:06.756Z,1564.00
2023-03-23T21:26:06.821Z,1556.00
2023-03-23T21:30:06.926Z,1552.00
2023-03-23T21:34:06.952Z,1544.00
2023-03-23T21:38:07.004Z,1544.00
2023-03-23T21:42:07.179Z,1539.00
2023-03-23T21:46:07.108Z,1527.00
2023-03-23T21:50:07.202Z,1526.00
2023-03-23T21:54:07.178Z,1525.00
2023-03-23T21:58:07.158Z,1520.00
2023-03-23T22:02:07.225Z,1516.00
2023-03-23T22:06:07.262Z,1506.00
2023-03-23T22:10:07.446Z,1503.00
2023-03-23T22:14:07.583Z,1503.00
2023-03-23T22:18:07.653Z,1499.00
2023-03-23T22:22:07.661Z,1495.00
2023-03-23T22:26:07.634Z,1488.00
2023-03-23T22:30:07.641Z,1487.00
2023-03-23T22:34:07.699Z,1473.00
2023-03-23T22:38:07.753Z,1468.00
2023-03-23T22:42:07.753Z,1465.00
2023-03-23T22:46:08.011Z,1463.00
2023-03-23T22:50:07.888Z,1458.00
2023-03-23T22:54:07.955Z,1453.00
2023-03-23T22:58:08.033Z,1452.00
2023-03-23T23:02:08.122Z,1443.00
2023-03-23T23:06:08.051Z,1441.00
2023-03-23T23:10:08.131Z,1437.00
2023-03-23T23:14:08.232Z,1432.00
2023-03-23T23:18:08.255Z,1427.00
2023-03-23T23:22:18.542Z,1423.00
2023-03-23T23:38:07.968Z,1414.00
2023-03-23T23:42:07.873Z,1416.00
2023-03-23T23:46:07.904Z,1406.00
2023-03-23T23:50:07.805Z,1407.00
2023-03-23T23:54:07.734Z,1403.00
2023-03-23T23:58:07.680Z,1404.00
